Time;durP1;ratioP1;P1;durP2;ratioP2;P2;SDS_P1;SDS_P2;PMS_P1;PMS_P2;Temp;Humidity;BMP_temperature;BMP_pressure;BME280_temperature;BME280_humidity;BME280_pressure;Samples;Min_cycle;Max_cycle;Signal;HPM_P1;HPM_P2
2023/03/09 00:00:48;;;;;;;;;4.50;1.25;;;;;11.21;62.21;99046.94;4997158;28;54080;-67
2023/03/09 00:03:15;;;;;;;;;2.75;2.00;;;;;11.16;62.34;99043.66;4997529;28;45947;-67
2023/03/09 00:05:55;;;;;;;;;2.75;2.00;;;;;11.20;62.37;99053.94;5012993;28;45810;-67
2023/03/09 00:08:21;;;;;;;;;4.25;2.00;;;;;11.19;62.43;99054.00;4997429;28;45547;-67
2023/03/09 00:10:50;;;;;;;;;1.00;1.00;;;;;11.19;62.35;99060.16;5012191;28;45245;-67
2023/03/09 00:13:15;;;;;;;;;1.00;0.00;;;;;11.17;62.40;99071.63;4995794;28;47862;-67
2023/03/09 00:15:41;;;;;;;;;0.75;0.75;;;;;11.16;62.24;99069.94;4986292;27;45338;-67
2023/03/09 00:18:06;;;;;;;;;2.00;2.00;;;;;11.17;62.34;99069.00;4995105;27;50100;-67
2023/03/09 00:20:31;;;;;;;;;2.25;2.00;;;;;11.15;62.37;99076.13;4997122;28;52270;-67
2023/03/09 00:22:56;;;;;;;;;4.50;1.75;;;;;11.13;62.21;99083.19;4996813;28;45353;-67
2023/03/09 00:25:22;;;;;;;;;3.50;2.25;;;;;11.15;62.26;99086.63;4997133;28;45315;-67
2023/03/09 00:27:50;;;;;;;;;1.25;1.00;;;;;11.14;62.33;99085.75;4997282;28;45346;-67
2023/03/09 00:30:16;;;;;;;;;2.00;1.00;;;;;11.13;61.98;99098.97;4997234;28;45271;-67
2023/03/09 00:32:42;;;;;;;;;1.75;1.75;;;;;11.10;62.39;99099.97;5012119;28;47374;-67
2023/03/09 00:35:08;;;;;;;;;1.50;1.00;;;;;11.10;61.90;99096.50;4997247;28;45161;-67
2023/03/09 00:37:34;;;;;;;;;3.50;2.00;;;;;11.12;62.18;99118.28;5012212;27;45476;-67
2023/03/09 00:40:00;;;;;;;;;4.00;2.00;;;;;11.13;62.05;99115.63;4997008;28;45298;-67
2023/03/09 00:42:25;;;;;;;;;1.50;1.00;;;;;11.06;62.13;99115.00;5011690;28;48206;-67
2023/03/09 00:44:51;;;;;;;;;1.75;1.00;;;;;11.04;61.91;99123.88;4998997;27;45346;-67
2023/03/09 00:47:18;;;;;;;;;2.00;1.00;;;;;11.06;62.00;99120.25;4999808;28;45323;-68
2023/03/09 00:49:43;;;;;;;;;1.75;0.25;;;;;11.03;62.04;99130.91;5000085;28;45503;-67
2023/03/09 00:52:09;;;;;;;;;3.00;2.00;;;;;11.03;61.72;99128.28;4999705;28;45294;-67
2023/03/09 00:54:34;;;;;;;;;1.75;0.75;;;;;11.02;61.96;99126.56;4999844;28;45262;-68
2023/03/09 00:57:01;;;;;;;;;0.50;0.00;;;;;11.03;61.90;99144.06;4999717;28;45181;-67
2023/03/09 00:59:27;;;;;;;;;1.75;1.75;;;;;11.04;61.92;99139.66;4998533;28;45576;-68
2023/03/09 01:01:52;;;;;;;;;1.00;1.00;;;;;11.00;61.87;99153.84;4999490;28;45453;-68
2023/03/09 01:04:17;;;;;;;;;1.00;1.00;;;;;10.98;61.95;99142.53;4999919;28;45327;-67
2023/03/09 01:06:43;;;;;;;;;2.75;1.75;;;;;10.94;61.55;99149.69;4998622;28;45239;-67
2023/03/09 01:09:09;;;;;;;;;1.00;1.00;;;;;10.97;61.44;99140.81;4998511;28;45366;-68
2023/03/09 01:11:35;;;;;;;;;0.00;0.00;;;;;10.94;61.80;99154.09;4998009;28;47019;-68
2023/03/09 01:14:01;;;;;;;;;1.25;1.25;;;;;10.97;61.66;99160.09;4998445;28;45901;-68
2023/03/09 01:16:26;;;;;;;;;2.25;1.00;;;;;10.91;61.79;99165.59;4986310;27;45351;-67
2023/03/09 01:18:52;;;;;;;;;0.75;0.75;;;;;10.89;61.67;99164.78;4998285;28;45461;-67
2023/03/09 01:21:17;;;;;;;;;1.00;1.00;;;;;10.86;61.62;99175.44;4999447;28;45315;-67
2023/03/09 01:23:43;;;;;;;;;2.00;2.00;;;;;10.84;61.70;99166.75;4999489;27;45261;-67
2023/03/09 01:26:08;;;;;;;;;2.00;0.00;;;;;10.87;61.75;99180.63;4999202;28;45580;-67
2023/03/09 01:28:34;;;;;;;;;4.00;1.25;;;;;10.87;61.69;99174.53;4999370;28;45359;-67
2023/03/09 01:31:00;;;;;;;;;2.50;2.25;;;;;10.82;61.69;99168.59;4999289;28;45213;-67
2023/03/09 01:33:26;;;;;;;;;0.75;0.75;;;;;10.81;61.46;99177.41;4999514;28;45287;-67
2023/03/09 01:35:52;;;;;;;;;1.25;0.75;;;;;10.80;61.94;99186.19;4999284;28;45294;-68
2023/03/09 01:38:17;;;;;;;;;1.00;1.00;;;;;10.82;61.53;99184.38;4999690;28;45375;-68
2023/03/09 01:40:47;;;;;;;;;1.50;0.50;;;;;10.80;61.81;99192.28;4998829;28;46373;-67
2023/03/09 01:43:31;;;;;;;;;2.00;1.00;;;;;10.82;61.53;99200.13;4999337;28;45558;-68
2023/03/09 01:46:15;;;;;;;;;2.00;1.00;;;;;10.82;61.68;99214.13;4987216;28;45382;-68
2023/03/09 01:48:41;;;;;;;;;4.00;1.50;;;;;10.77;61.43;99216.06;4996505;28;45493;-68
2023/03/09 01:51:07;;;;;;;;;3.25;2.50;;;;;10.76;61.73;99245.03;4998063;28;45361;-67
2023/03/09 01:53:32;;;;;;;;;1.75;1.00;;;;;10.75;61.61;99233.66;4996982;28;45649;-67
2023/03/09 01:56:00;;;;;;;;;1.00;1.00;;;;;10.71;61.53;99222.41;4997712;28;45296;-68
2023/03/09 01:58:29;;;;;;;;;1.00;1.00;;;;;10.75;62.08;99225.78;4998007;28;45416;-67
2023/03/09 02:00:56;;;;;;;;;1.75;1.75;;;;;10.75;61.42;99235.44;4996433;28;46366;-68
2023/03/09 02:03:26;;;;;;;;;4.50;2.00;;;;;10.73;61.55;99225.00;4997908;28;45471;-68
2023/03/09 02:05:57;;;;;;;;;2.50;1.00;;;;;10.78;61.64;99241.44;4996850;28;45264;-68
2023/03/09 02:08:25;;;;;;;;;1.75;1.50;;;;;10.77;61.69;99233.59;4997844;28;45421;-68
2023/03/09 02:10:59;;;;;;;;;2.50;1.00;;;;;10.79;61.64;99244.91;4997243;28;46291;-67
2023/03/09 02:13:31;;;;;;;;;1.50;1.50;;;;;10.80;61.58;99267.66;4984072;28;45711;-68
2023/03/09 02:15:57;;;;;;;;;2.00;0.25;;;;;10.79;61.84;99243.16;4984721;27;45248;-68
2023/03/09 02:18:24;;;;;;;;;3.75;1.00;;;;;10.76;61.73;99237.16;4997868;28;45367;-68
2023/03/09 02:21:17;;;;;;;;;1.50;1.50;;;;;10.74;61.46;99239.81;4997400;28;45712;-68
2023/03/09 02:24:02;;;;;;;;;6.50;1.25;;;;;10.73;61.57;99230.25;4997474;28;45319;-68
2023/03/09 02:26:42;;;;;;;;;3.50;1.00;;;;;10.76;61.91;99251.13;4998833;28;45371;-67
2023/03/09 02:29:08;;;;;;;;;3.00;1.00;;;;;10.76;61.75;99263.44;5017149;28;45353;-68
2023/03/09 02:31:33;;;;;;;;;3.50;1.00;;;;;10.77;61.82;99260.75;5017125;28;45454;-68
2023/03/09 02:33:59;;;;;;;;;1.50;1.00;;;;;10.71;61.68;99243.44;5014695;28;45303;-68
2023/03/09 02:36:25;;;;;;;;;2.00;1.25;;;;;10.79;61.72;99243.16;4996377;28;45462;-67
2023/03/09 02:38:50;;;;;;;;;1.75;1.00;;;;;10.83;61.96;99251.75;5013089;28;45626;-68
2023/03/09 02:41:17;;;;;;;;;4.25;2.75;;;;;10.82;61.86;99265.81;5017026;28;45299;-67
2023/03/09 02:43:49;;;;;;;;;3.25;1.25;;;;;10.86;61.76;99270.88;5011226;28;45335;-68
2023/03/09 02:46:14;;;;;;;;;3.00;1.75;;;;;10.88;62.11;99265.59;5008093;28;45340;-67
2023/03/09 02:48:40;;;;;;;;;2.50;1.75;;;;;10.92;61.83;99264.56;4977880;28;1137489;-67
2023/03/09 02:51:06;;;;;;;;;3.75;1.00;;;;;10.93;62.03;99266.25;5018132;28;47486;-67
2023/03/09 02:53:31;;;;;;;;;1.25;1.25;;;;;10.92;62.00;99272.44;5016788;28;45358;-69
2023/03/09 02:55:57;;;;;;;;;3.50;1.00;;;;;10.95;61.73;99274.09;5018100;28;45356;-68
2023/03/09 02:58:22;;;;;;;;;5.00;2.00;;;;;10.97;62.00;99272.22;5016224;28;58651;-68
2023/03/09 03:00:47;;;;;;;;;2.75;2.00;;;;;10.97;61.78;99294.13;5016124;28;46095;-68
2023/03/09 03:03:13;;;;;;;;;2.50;2.25;;;;;10.96;62.19;99270.53;5017988;28;45400;-68
2023/03/09 03:05:38;;;;;;;;;2.00;1.75;;;;;10.98;61.90;99272.19;5017209;28;45255;-69
2023/03/09 03:08:04;;;;;;;;;4.00;2.50;;;;;11.04;61.87;99300.00;5016845;28;45226;-68
2023/03/09 03:10:29;;;;;;;;;2.75;1.00;;;;;11.03;62.03;99278.13;5017623;28;45475;-68
2023/03/09 03:12:54;;;;;;;;;4.50;2.25;;;;;11.04;62.11;99289.47;5017895;28;45237;-68
2023/03/09 03:15:19;;;;;;;;;4.25;2.50;;;;;11.02;61.74;99280.81;5001564;28;45268;-68
2023/03/09 03:17:45;;;;;;;;;1.75;1.25;;;;;11.06;62.11;99298.19;5026390;28;45284;-68
2023/03/09 03:20:13;;;;;;;;;6.00;2.25;;;;;11.12;61.97;99297.06;5009741;28;46354;-68
2023/03/09 03:22:40;;;;;;;;;3.50;2.00;;;;;11.11;61.93;99305.91;4997754;28;45534;-68
2023/03/09 03:25:07;;;;;;;;;3.75;2.75;;;;;11.11;61.99;99309.38;4998073;28;45330;-68
2023/03/09 03:27:32;;;;;;;;;2.50;1.50;;;;;11.14;61.92;99300.50;4997907;28;45385;-68
2023/03/09 03:29:58;;;;;;;;;4.00;2.00;;;;;11.17;62.03;99310.88;4997909;28;45445;-68
2023/03/09 03:32:24;;;;;;;;;1.50;1.00;;;;;11.12;62.08;99303.19;4996553;28;45462;-68
2023/03/09 03:34:49;;;;;;;;;4.50;2.00;;;;;11.16;61.78;99323.19;4998469;28;45266;-68
2023/03/09 03:37:14;;;;;;;;;2.75;1.75;;;;;11.17;62.08;99321.41;5012426;28;45490;-68
2023/03/09 03:39:40;;;;;;;;;3.50;1.75;;;;;11.16;62.05;99314.44;4998003;28;45350;-68
2023/03/09 03:42:05;;;;;;;;;2.00;2.00;;;;;11.19;61.88;99324.84;5012771;28;45267;-69
2023/03/09 03:44:31;;;;;;;;;3.75;2.00;;;;;11.21;61.91;99329.13;4997973;28;45215;-68
2023/03/09 03:46:56;;;;;;;;;8.00;2.00;;;;;11.23;62.13;99329.06;4997618;28;45228;-68
2023/03/09 03:49:21;;;;;;;;;4.25;2.00;;;;;11.22;62.05;99338.72;4996352;28;46607;-68
2023/03/09 03:51:47;;;;;;;;;4.50;2.00;;;;;11.18;61.85;99317.84;4996330;28;45327;-68
2023/03/09 03:54:12;;;;;;;;;4.25;3.00;;;;;11.26;61.94;99336.84;4997900;28;45276;-69
2023/03/09 03:56:37;;;;;;;;;4.75;3.25;;;;;11.25;62.13;99329.84;5012646;28;45768;-68
2023/03/09 03:59:04;;;;;;;;;3.75;2.00;;;;;11.21;62.06;99334.38;4997681;28;45554;-68
2023/03/09 04:01:29;;;;;;;;;4.25;2.00;;;;;11.27;62.11;99348.19;4996259;28;45650;-68
2023/03/09 04:03:54;;;;;;;;;3.00;1.25;;;;;11.28;62.11;99356.06;5012936;28;45543;-68
2023/03/09 04:06:20;;;;;;;;;5.00;1.50;;;;;11.29;62.30;99356.91;4997531;28;45464;-68
2023/03/09 04:08:45;;;;;;;;;2.00;1.00;;;;;11.27;62.23;99349.06;4997494;28;46294;-69
2023/03/09 04:11:11;;;;;;;;;6.00;2.00;;;;;11.26;62.04;99347.34;4997104;28;45384;-68
2023/03/09 04:13:36;;;;;;;;;2.50;2.50;;;;;11.24;62.16;99351.81;4997812;28;45421;-68
2023/03/09 04:16:01;;;;;;;;;5.75;2.00;;;;;11.26;62.00;99349.97;4984341;27;45261;-68
2023/03/09 04:18:27;;;;;;;;;5.00;3.00;;;;;11.28;62.07;99356.06;4997245;28;45408;-69
2023/03/09 04:20:52;;;;;;;;;5.00;1.25;;;;;11.33;62.20;99366.38;4997266;28;45415;-69
2023/03/09 04:23:17;;;;;;;;;5.75;2.75;;;;;11.34;62.12;99368.09;4995801;27;46052;-69
2023/03/09 04:25:42;;;;;;;;;2.00;2.00;;;;;11.31;62.05;99362.97;4996794;28;50578;-69
2023/03/09 04:28:08;;;;;;;;;3.75;3.25;;;;;11.34;61.92;99361.03;4997401;28;46241;-69
2023/03/09 04:30:33;;;;;;;;;4.25;1.50;;;;;11.34;61.82;99366.31;5012144;28;45313;-69
2023/03/09 04:32:58;;;;;;;;;3.75;1.00;;;;;11.35;61.90;99372.44;4997491;28;45581;-69
2023/03/09 04:35:24;;;;;;;;;3.50;1.50;;;;;11.37;61.93;99374.09;4996891;28;51738;-69
2023/03/09 04:37:51;;;;;;;;;4.50;2.50;;;;;11.36;61.92;99376.78;4996978;28;45297;-69
2023/03/09 04:40:17;;;;;;;;;8.75;3.00;;;;;11.38;62.04;99373.19;5011827;28;45253;-69
2023/03/09 04:42:42;;;;;;;;;2.00;0.75;;;;;11.42;61.97;99387.06;4997230;28;45362;-69
2023/03/09 04:45:08;;;;;;;;;3.50;2.75;;;;;11.41;61.93;99382.72;4996337;28;45546;-69
2023/03/09 04:47:33;;;;;;;;;1.25;1.25;;;;;11.43;61.87;99386.13;4996741;28;46289;-69
2023/03/09 04:49:59;;;;;;;;;2.25;2.00;;;;;11.45;62.13;99386.09;4996794;28;45406;-69
2023/03/09 04:52:24;;;;;;;;;5.00;2.25;;;;;11.44;62.07;99395.75;5012300;28;45371;-69
2023/03/09 04:54:50;;;;;;;;;3.50;2.25;;;;;11.50;62.11;99386.75;5011862;28;45325;-69
2023/03/09 04:57:15;;;;;;;;;3.25;2.25;;;;;11.50;62.11;99397.28;4994946;28;47158;-69
2023/03/09 04:59:41;;;;;;;;;4.75;2.00;;;;;11.48;62.05;99396.47;4995394;28;45549;-69
2023/03/09 05:02:06;;;;;;;;;7.75;4.00;;;;;11.46;62.06;99401.81;4995652;28;45265;-69
2023/03/09 05:04:32;;;;;;;;;7.50;4.25;;;;;11.48;62.20;99404.38;5011740;28;45336;-69
2023/03/09 05:06:57;;;;;;;;;3.25;3.00;;;;;11.51;62.23;99406.91;4996955;28;45306;-68
2023/03/09 05:09:23;;;;;;;;;2.00;2.00;;;;;11.46;62.02;99414.97;5011542;28;45345;-69
2023/03/09 05:11:52;;;;;;;;;3.75;2.75;;;;;11.53;62.09;99412.94;4996667;28;45421;-69
2023/03/09 05:14:18;;;;;;;;;5.25;2.50;;;;;11.48;61.90;99399.09;4996496;28;45224;-69
2023/03/09 05:16:44;;;;;;;;;7.25;3.25;;;;;11.47;61.63;99400.91;4998266;27;47176;-69
2023/03/09 05:19:10;;;;;;;;;4.00;2.00;;;;;11.46;61.97;99406.19;4996315;28;45385;-69
2023/03/09 05:21:35;;;;;;;;;3.00;2.75;;;;;11.48;62.02;99415.78;5011785;28;45257;-69
2023/03/09 05:24:01;;;;;;;;;5.75;2.00;;;;;11.51;61.97;99425.31;4995868;27;45390;-69
2023/03/09 05:26:27;;;;;;;;;4.50;4.00;;;;;11.55;62.08;99426.91;4996249;28;46254;-69
2023/03/09 05:28:52;;;;;;;;;2.50;2.50;;;;;11.55;62.20;99417.22;4996163;28;45340;-69
2023/03/09 05:31:18;;;;;;;;;3.75;3.00;;;;;11.55;62.01;99416.38;4998864;28;45375;-69
2023/03/09 05:33:43;;;;;;;;;2.50;1.00;;;;;11.58;62.16;99418.88;4999622;28;45294;-69
2023/03/09 05:36:27;;;;;;;;;6.75;2.00;;;;;11.57;62.12;99418.94;4986242;27;45346;-68
2023/03/09 05:38:52;;;;;;;;;2.25;2.25;;;;;11.59;62.12;99415.31;5002016;28;45440;-69
2023/03/09 05:41:19;;;;;;;;;6.00;3.00;;;;;11.59;62.22;99417.97;4999529;28;45401;-69
2023/03/09 05:43:45;;;;;;;;;5.50;4.00;;;;;11.59;62.22;99420.59;4999176;27;45532;-70
2023/03/09 05:46:15;;;;;;;;;6.25;4.25;;;;;11.60;62.14;99424.94;4997820;28;45446;-69
2023/03/09 05:48:42;;;;;;;;;5.00;4.00;;;;;11.62;62.20;99428.38;4997755;28;45421;-68
2023/03/09 05:51:08;;;;;;;;;4.75;4.50;;;;;11.60;62.27;99424.94;4998212;28;45626;-68
2023/03/09 05:53:35;;;;;;;;;5.50;3.00;;;;;11.61;62.29;99425.78;4997849;28;45509;-68
2023/03/09 05:56:02;;;;;;;;;4.00;1.00;;;;;11.59;62.30;99428.47;5013220;28;47153;-70
2023/03/09 05:58:27;;;;;;;;;4.25;2.75;;;;;11.59;62.34;99431.13;4998806;28;45330;-70
2023/03/09 06:00:53;;;;;;;;;4.25;3.00;;;;;11.60;62.26;99429.34;4998692;28;45423;-69
2023/03/09 06:03:19;;;;;;;;;3.75;1.00;;;;;11.61;62.17;99429.28;4997828;28;45534;-68
2023/03/09 06:05:45;;;;;;;;;5.75;2.75;;;;;11.61;62.24;99431.91;4997792;28;46452;-68
2023/03/09 06:08:11;;;;;;;;;6.50;3.00;;;;;11.62;62.34;99441.53;4997708;28;45432;-68
2023/03/09 06:10:37;;;;;;;;;5.25;3.50;;;;;11.64;62.30;99457.25;4996250;28;45379;-68
2023/03/09 06:13:03;;;;;;;;;3.75;3.75;;;;;11.65;62.42;99443.19;4997826;28;45495;-68
2023/03/09 06:15:28;;;;;;;;;6.75;2.75;;;;;11.63;62.53;99450.28;4988245;27;45327;-69
2023/03/09 06:17:54;;;;;;;;;6.00;4.00;;;;;11.62;62.36;99454.69;4992368;27;45506;-67
2023/03/09 06:20:19;;;;;;;;;4.50;3.50;;;;;11.64;62.33;99458.09;4997768;28;45442;-62
2023/03/09 06:22:45;;;;;;;;;7.50;3.00;;;;;11.63;62.17;99461.63;4997425;27;45473;-72
2023/03/09 06:25:11;;;;;;;;;2.50;2.00;;;;;11.65;62.85;99457.19;4998448;28;45325;-76
2023/03/09 06:27:37;;;;;;;;;5.00;2.25;;;;;11.66;62.26;99461.53;4997360;28;45282;-73
2023/03/09 06:30:04;;;;;;;;;5.25;2.00;;;;;11.64;62.06;99460.72;4998739;28;45315;-73
2023/03/09 06:32:33;;;;;;;;;6.75;4.00;;;;;11.64;62.29;99467.78;4998458;28;45415;-74
2023/03/09 06:34:58;;;;;;;;;3.50;1.75;;;;;11.66;62.40;99472.06;4998566;28;46043;-74
2023/03/09 06:37:23;;;;;;;;;11.75;4.75;;;;;11.64;62.38;99473.88;4998276;28;45229;-74
2023/03/09 06:39:49;;;;;;;;;4.25;3.25;;;;;11.65;61.99;99475.59;4998655;28;45230;-74
2023/03/09 06:42:14;;;;;;;;;3.00;2.00;;;;;11.68;62.38;99491.28;4996487;28;54482;-73
2023/03/09 06:44:39;;;;;;;;;4.00;2.25;;;;;11.70;62.50;99494.69;4996731;28;57761;-73
2023/03/09 06:47:05;;;;;;;;;6.50;4.00;;;;;11.71;62.41;99501.69;5010289;27;45215;-72
2023/03/09 06:49:30;;;;;;;;;6.00;4.00;;;;;11.69;62.53;99497.41;4998620;27;45480;-73
2023/03/09 06:51:57;;;;;;;;;4.25;2.00;;;;;11.69;62.20;99481.63;4998390;28;45231;-75
2023/03/09 06:54:22;;;;;;;;;7.00;3.50;;;;;11.73;62.51;99498.16;4998208;28;46061;-73
2023/03/09 06:56:47;;;;;;;;;6.75;3.00;;;;;11.73;62.57;99503.41;4998147;28;45169;-71
2023/03/09 06:59:14;;;;;;;;;6.75;5.00;;;;;11.74;62.36;99513.03;4998574;28;45327;-70
2023/03/09 07:01:40;;;;;;;;;8.25;6.25;;;;;11.74;62.52;99520.91;4998034;27;45511;-73
2023/03/09 07:04:06;;;;;;;;;4.25;3.00;;;;;11.77;62.69;99521.63;4997034;28;47403;-71
2023/03/09 07:06:31;;;;;;;;;5.00;3.00;;;;;11.76;62.31;99526.97;5013441;28;45788;-75
2023/03/09 07:08:57;;;;;;;;;8.25;5.00;;;;;11.76;62.34;99530.47;4997741;28;45523;-74
2023/03/09 07:11:22;;;;;;;;;4.00;3.00;;;;;11.76;62.33;99534.84;4996502;28;45521;-74
2023/03/09 07:13:47;;;;;;;;;8.25;6.50;;;;;11.73;62.48;99527.09;4996370;27;50267;-70
2023/03/09 07:16:13;;;;;;;;;6.75;4.00;;;;;11.76;62.39;99524.34;5026947;27;45390;-73
2023/03/09 07:18:38;;;;;;;;;5.00;4.00;;;;;11.75;62.13;99528.75;5005221;27;45647;-73
2023/03/09 07:21:04;;;;;;;;;7.25;3.50;;;;;11.80;62.41;99536.47;5001850;28;57930;-73
2023/03/09 07:23:31;;;;;;;;;7.00;4.00;;;;;11.82;62.45;99542.53;4997763;28;45971;-73
2023/03/09 07:26:01;;;;;;;;;5.00;3.00;;;;;11.81;62.50;99544.31;4996205;28;45367;-74
2023/03/09 07:28:26;;;;;;;;;10.50;5.00;;;;;11.85;62.51;99542.41;5013244;27;45343;-73
2023/03/09 07:30:52;;;;;;;;;8.00;5.50;;;;;11.85;62.38;99543.28;4997713;28;45379;-73
2023/03/09 07:33:17;;;;;;;;;7.00;3.50;;;;;11.85;62.41;99548.53;4997586;28;45828;-73
2023/03/09 07:35:43;;;;;;;;;4.50;3.50;;;;;11.89;62.45;99551.91;4998799;27;45286;-74
2023/03/09 07:38:08;;;;;;;;;8.75;3.25;;;;;11.88;62.60;99552.81;4998197;28;45310;-73
2023/03/09 07:40:34;;;;;;;;;9.00;3.25;;;;;11.88;62.67;99555.44;4997612;28;45834;-74
2023/03/09 07:42:59;;;;;;;;;6.25;3.75;;;;;11.93;62.60;99555.28;4998036;28;46247;-75
2023/03/09 07:45:24;;;;;;;;;6.75;4.00;;;;;11.87;62.43;99549.34;4997624;27;45235;-74
2023/03/09 07:47:50;;;;;;;;;3.00;2.25;;;;;11.90;62.21;99558.00;5013009;28;45254;-74
2023/03/09 07:50:16;;;;;;;;;7.00;2.50;;;;;11.94;62.43;99564.91;5012056;28;45452;-74
2023/03/09 07:52:42;;;;;;;;;8.25;3.75;;;;;11.92;62.52;99562.31;4996047;28;46284;-74
2023/03/09 07:55:10;;;;;;;;;6.00;5.00;;;;;11.97;62.56;99565.66;4997103;27;45481;-74
2023/03/09 07:57:35;;;;;;;;;4.25;3.00;;;;;11.99;62.35;99577.00;5013747;28;45330;-74
2023/03/09 08:00:06;;;;;;;;;5.25;2.25;;;;;11.98;62.41;99577.91;4997407;28;45385;-74
2023/03/09 08:02:31;;;;;;;;;5.75;3.75;;;;;12.00;62.32;99573.44;4997680;28;45254;-74
2023/03/09 08:04:56;;;;;;;;;9.00;4.50;;;;;12.02;62.38;99579.53;4997419;28;45188;-74
2023/03/09 08:07:22;;;;;;;;;7.50;2.75;;;;;12.00;62.38;99570.81;4997763;28;45220;-74
2023/03/09 08:09:47;;;;;;;;;6.00;3.50;;;;;12.08;62.54;99582.81;4997303;28;45364;-74
2023/03/09 08:12:12;;;;;;;;;5.50;4.00;;;;;12.07;62.41;99567.94;4995864;28;48202;-74
2023/03/09 08:14:38;;;;;;;;;7.50;3.75;;;;;12.09;62.69;99571.34;4994604;27;45441;-74
2023/03/09 08:17:03;;;;;;;;;15.25;2.00;;;;;12.12;62.75;99577.38;4987445;28;45469;-75
2023/03/09 08:19:29;;;;;;;;;5.25;3.25;;;;;12.17;62.32;99600.91;5011848;28;45338;-74
2023/03/09 08:21:55;;;;;;;;;9.50;3.25;;;;;12.18;62.38;99581.53;4998333;28;45460;-74
2023/03/09 08:24:20;;;;;;;;;4.75;3.25;;;;;12.17;62.33;99585.09;4997453;27;45338;-75
2023/03/09 08:26:46;;;;;;;;;8.50;5.25;;;;;12.22;62.49;99585.75;5012442;28;45338;-77
2023/03/09 08:29:11;;;;;;;;;7.50;4.75;;;;;12.22;62.21;99569.97;4997188;28;45463;-76
2023/03/09 08:31:36;;;;;;;;;10.00;5.25;;;;;12.24;62.50;99576.03;4997178;28;45484;-76
2023/03/09 08:34:04;;;;;;;;;5.75;3.00;;;;;12.35;62.68;99583.50;4995733;28;45482;-76
2023/03/09 08:36:29;;;;;;;;;13.00;8.75;;;;;12.33;62.74;99575.66;4997300;28;45165;-77
2023/03/09 08:38:55;;;;;;;;;6.25;4.50;;;;;12.40;62.41;99588.59;4998858;27;45228;-76
2023/03/09 08:41:21;;;;;;;;;6.25;5.00;;;;;12.41;62.38;99583.25;4997018;28;45338;-77
2023/03/09 08:43:47;;;;;;;;;8.50;6.00;;;;;12.46;62.48;99586.56;4995561;28;45292;-77
2023/03/09 08:46:12;;;;;;;;;7.75;5.00;;;;;12.49;62.71;99589.09;4997296;28;45291;-77
2023/03/09 08:48:38;;;;;;;;;8.25;5.50;;;;;12.54;62.67;99581.00;4995321;28;45620;-78
2023/03/09 08:51:05;;;;;;;;;6.50;4.75;;;;;12.60;62.32;99586.03;4997146;28;45185;-78
2023/03/09 08:53:32;;;;;;;;;8.75;4.75;;;;;12.62;62.60;99599.13;5011972;28;45391;-77
2023/03/09 08:55:58;;;;;;;;;4.00;4.00;;;;;12.66;62.08;99596.28;5011918;28;45287;-77
2023/03/09 08:58:23;;;;;;;;;11.00;4.75;;;;;12.68;62.24;99577.78;4996631;28;45389;-78
2023/03/09 09:00:49;;;;;;;;;6.50;3.75;;;;;12.73;62.26;99582.84;4996832;28;45307;-77
2023/03/09 09:03:15;;;;;;;;;10.50;4.50;;;;;12.79;62.50;99579.97;4996581;28;45440;-77
2023/03/09 09:05:40;;;;;;;;;8.00;6.00;;;;;12.80;62.64;99586.97;4998730;28;45312;-77
2023/03/09 09:08:05;;;;;;;;;6.25;5.25;;;;;12.87;62.42;99583.16;5017308;28;45299;-77
2023/03/09 09:10:31;;;;;;;;;12.75;6.00;;;;;12.87;62.38;99588.44;5006405;28;46444;-77
2023/03/09 09:12:56;;;;;;;;;11.25;6.25;;;;;12.95;62.48;99585.47;5001270;28;45243;-77
2023/03/09 09:15:22;;;;;;;;;12.75;5.00;;;;;12.95;62.18;99591.56;4991992;27;45307;-77
2023/03/09 09:17:47;;;;;;;;;9.25;5.75;;;;;12.99;62.24;99585.28;4994118;28;45327;-77
2023/03/09 09:20:13;;;;;;;;;8.50;4.50;;;;;13.00;62.01;99581.72;4999588;28;45557;-76
2023/03/09 09:22:42;;;;;;;;;10.25;5.00;;;;;13.10;62.08;99584.78;4999300;28;45549;-77
2023/03/09 09:25:08;;;;;;;;;13.00;6.00;;;;;13.13;62.10;99605.78;5014249;28;45362;-76
2023/03/09 09:27:34;;;;;;;;;6.75;4.50;;;;;13.18;62.16;99587.09;4999488;28;45412;-75
2023/03/09 09:29:59;;;;;;;;;9.25;4.00;;;;;13.24;61.94;99596.53;4999400;28;45429;-75
2023/03/09 09:32:24;;;;;;;;;8.50;6.50;;;;;13.24;62.30;99584.19;4999422;28;45228;-75
2023/03/09 09:34:50;;;;;;;;;13.25;7.00;;;;;13.27;62.33;99589.34;4999590;28;45216;-76
2023/03/09 09:37:16;;;;;;;;;14.00;6.00;;;;;13.27;62.06;99570.88;4999323;27;45334;-75
2023/03/09 09:39:42;;;;;;;;;5.75;4.00;;;;;13.34;61.93;99566.19;4999411;28;45232;-75
2023/03/09 09:42:24;;;;;;;;;11.25;9.00;;;;;13.37;62.32;99573.09;4998905;28;45288;-75
2023/03/09 09:44:52;;;;;;;;;9.75;5.75;;;;;13.45;61.77;99581.59;4999489;28;45444;-75
2023/03/09 09:47:23;;;;;;;;;12.75;3.00;;;;;13.48;61.86;99576.16;4999016;28;45386;-75
2023/03/09 09:49:51;;;;;;;;;12.00;8.25;;;;;13.58;61.98;99585.38;5014110;28;47711;-75
2023/03/09 09:52:29;;;;;;;;;8.75;6.25;;;;;13.64;61.88;99574.53;4986535;28;45335;-75
2023/03/09 09:55:05;;;;;;;;;8.50;3.00;;;;;13.69;61.69;99561.13;4998858;28;45496;-78
2023/03/09 09:57:43;;;;;;;;;7.00;5.00;;;;;13.77;61.93;99566.06;4999270;28;45271;-74
2023/03/09 10:00:14;;;;;;;;;13.00;5.75;;;;;13.80;61.87;99568.56;4998745;28;46009;-75
2023/03/09 10:03:03;;;;;;;;;12.00;5.50;;;;;13.84;61.71;99564.00;4999224;28;45476;-75
2023/03/09 10:05:40;;;;;;;;;12.00;9.50;;;;;13.91;61.43;99553.09;4990162;28;45401;-75
2023/03/09 10:08:29;;;;;;;;;11.00;4.25;;;;;13.95;61.94;99551.16;4999848;28;45329;-78
2023/03/09 10:11:02;;;;;;;;;8.00;5.50;;;;;14.04;61.64;99552.50;4998259;28;46200;-76
2023/03/09 10:13:37;;;;;;;;;12.00;7.00;;;;;14.07;61.19;99560.28;4999090;28;45311;-75
2023/03/09 10:16:09;;;;;;;;;7.75;4.50;;;;;14.01;61.56;99558.78;4985575;27;45360;-75
2023/03/09 10:18:42;;;;;;;;;9.00;4.00;;;;;14.05;61.22;99578.84;4998845;28;45251;-76
2023/03/09 10:21:18;;;;;;;;;8.25;6.00;;;;;14.06;61.09;99551.50;4998726;28;45449;-75
2023/03/09 10:23:44;;;;;;;;;9.00;5.25;;;;;14.13;61.08;99565.28;4996812;28;45362;-75
2023/03/09 10:26:48;;;;;;;;;8.25;6.00;;;;;14.13;61.11;99566.13;5013711;28;45465;-75
2023/03/09 10:29:25;;;;;;;;;7.75;7.00;;;;;14.14;60.85;99561.72;4998515;28;45535;-75
2023/03/09 10:32:04;;;;;;;;;9.50;5.00;;;;;14.14;61.00;99557.28;4998651;27;45361;-77
2023/03/09 10:34:53;;;;;;;;;6.25;4.00;;;;;14.13;60.58;99557.34;5005506;28;45472;-78
2023/03/09 10:37:24;;;;;;;;;7.00;4.75;;;;;14.12;60.89;99548.59;5001662;27;45341;-76
2023/03/09 10:39:49;;;;;;;;;6.75;4.25;;;;;14.17;60.48;99550.97;4998425;28;45402;-78
2023/03/09 10:42:18;;;;;;;;;9.50;5.50;;;;;14.21;60.73;99567.53;4998334;28;45777;-76
2023/03/09 10:44:50;;;;;;;;;10.75;3.75;;;;;14.26;60.62;99565.53;4998583;27;45375;-76
2023/03/09 10:47:16;;;;;;;;;9.25;4.00;;;;;14.26;60.63;99561.13;5013464;28;45494;-75
2023/03/09 10:49:41;;;;;;;;;6.75;5.00;;;;;14.29;60.57;99560.97;4998330;28;48027;-75
2023/03/09 10:52:18;;;;;;;;;4.25;3.75;;;;;14.34;60.47;99549.31;4998326;28;45423;-75
2023/03/09 10:54:43;;;;;;;;;7.00;5.00;;;;;14.32;60.59;99545.91;4998121;28;45523;-76
2023/03/09 10:57:30;;;;;;;;;9.25;5.00;;;;;14.42;60.39;99555.09;4998748;28;45349;-76
2023/03/09 11:00:14;;;;;;;;;10.50;6.75;;;;;14.42;60.17;99542.72;5013570;28;45504;-75
2023/03/09 11:02:51;;;;;;;;;12.25;6.00;;;;;14.41;60.21;99533.06;4998239;28;45318;-78
2023/03/09 11:05:25;;;;;;;;;12.75;8.00;;;;;14.50;60.49;99547.63;4986401;28;45295;-75
2023/03/09 11:07:55;;;;;;;;;3.75;3.00;;;;;14.49;60.26;99522.16;4998334;28;45294;-75
2023/03/09 11:10:40;;;;;;;;;8.25;4.00;;;;;14.60;60.06;99525.09;4997853;28;45480;-76
2023/03/09 11:13:17;;;;;;;;;7.50;5.75;;;;;14.65;60.00;99553.97;4997435;28;45398;-75
2023/03/09 11:15:43;;;;;;;;;7.50;5.50;;;;;14.65;59.78;99548.69;5002007;27;45847;-76
2023/03/09 11:18:29;;;;;;;;;7.50;6.00;;;;;14.67;59.72;99559.19;4996655;28;45329;-66
2023/03/09 11:20:54;;;;;;;;;13.50;6.00;;;;;14.66;59.97;99538.97;4997054;28;45445;-68
2023/03/09 11:23:34;;;;;;;;;8.50;4.00;;;;;14.69;59.34;99546.75;4997643;27;45230;-66
2023/03/09 11:26:14;;;;;;;;;10.25;6.75;;;;;14.75;59.38;99547.31;4996629;28;45413;-67
2023/03/09 11:28:59;;;;;;;;;8.00;5.50;;;;;14.81;59.44;99558.50;4994333;28;45365;-75
2023/03/09 11:31:37;;;;;;;;;5.00;4.00;;;;;14.84;59.20;99545.13;4996510;28;45282;-76
2023/03/09 11:34:06;;;;;;;;;10.00;3.50;;;;;14.90;59.56;99553.59;4996094;27;45884;-75